Time;durP1;ratioP1;P1;durP2;ratioP2;P2;SDS_P1;SDS_P2;PMS_P1;PMS_P2;Temp;Humidity;BMP_temperature;BMP_pressure;BME280_temperature;BME280_humidity;BME280_pressure;Samples;Min_cycle;Max_cycle;Signal;HPM_P1;HPM_P2
2023/10/11 00:26:49;;;;;;;13.07;5.55;;;13.60;99.90;;;;;;6248180;23;20020;-81
2023/10/11 00:29:15;;;;;;;;;;;13.50;99.90;;;;;;6250904;23;20023;-83
2023/10/11 00:31:41;;;;;;;15.70;6.40;;;13.50;99.90;;;;;;6223459;23;19899;-82
2023/10/11 00:34:12;;;;;;;15.23;6.30;;;13.50;99.90;;;;;;6222313;23;20004;-83
2023/10/11 00:36:38;;;;;;;11.73;6.28;;;13.50;99.90;;;;;;6249597;23;20012;-83
2023/10/11 00:39:07;;;;;;;11.95;6.35;;;13.40;99.90;;;;;;6220011;23;20004;-82
2023/10/11 00:41:39;;;;;;;13.98;6.43;;;13.70;99.90;;;;;;6223423;23;20000;-82
2023/10/11 00:44:05;;;;;;;11.60;5.93;;;13.50;99.90;;;;;;6223008;23;19996;-82
2023/10/11 00:46:44;;;;;;;12.52;5.90;;;13.50;99.90;;;;;;6223688;23;20683;-81
2023/10/11 00:49:13;;;;;;;13.98;5.90;;;13.50;99.90;;;;;;6223951;23;20004;-81
2023/10/11 00:51:42;;;;;;;15.07;6.20;;;13.50;99.90;;;;;;6222265;23;20054;-81
2023/10/11 00:54:15;;;;;;;11.02;5.30;;;13.40;99.90;;;;;;6220129;23;20008;-81
2023/10/11 00:56:43;;;;;;;13.00;6.45;;;13.40;99.90;;;;;;6221728;23;20000;-81
2023/10/11 00:59:14;;;;;;;13.18;6.22;;;13.40;99.90;;;;;;6218422;23;20450;-82
2023/10/11 01:01:44;;;;;;;10.75;5.63;;;13.40;99.90;;;;;;6216084;23;20100;-81
2023/10/11 01:04:10;;;;;;;11.32;5.80;;;13.40;99.90;;;;;;6219115;23;20007;-81
2023/10/11 01:06:36;;;;;;;12.48;5.82;;;13.40;99.90;;;;;;6244180;23;20008;-82
2023/10/11 01:09:24;;;;;;;12.20;6.22;;;13.40;99.90;;;;;;6243241;23;20019;-80
2023/10/11 01:11:50;;;;;;;11.52;5.57;;;13.30;99.90;;;;;;6247343;23;20011;-82
2023/10/11 01:14:18;;;;;;;11.43;5.53;;;13.30;99.90;;;;;;6219332;23;20414;-82
2023/10/11 01:16:44;;;;;;;10.60;5.72;;;13.30;99.90;;;;;;6244129;23;20011;-81
2023/10/11 01:19:16;;;;;;;10.85;5.72;;;13.30;99.90;;;;;;6217021;23;21084;-82
2023/10/11 01:21:46;;;;;;;13.60;6.43;;;13.30;99.90;;;;;;6220489;23;20438;-82
2023/10/11 01:24:12;;;;;;;;;;;13.30;99.90;;;;;;6226136;23;20000;-80
2023/10/11 01:26:38;;;;;;;13.15;5.97;;;13.30;99.90;;;;;;6248928;23;20396;-81
2023/10/11 01:29:05;;;;;;;17.10;6.45;;;13.20;99.90;;;;;;6250280;22;20000;-82
2023/10/11 01:31:33;;;;;;;10.85;5.82;;;13.20;99.90;;;;;;6248540;23;20414;-82
2023/10/11 01:33:59;;;;;;;11.40;5.85;;;13.20;99.90;;;;;;6250331;22;20000;-81
2023/10/11 01:36:26;;;;;;;15.15;6.15;;;13.20;99.90;;;;;;6249745;22;20000;-81
2023/10/11 01:38:52;;;;;;;11.20;6.05;;;13.20;99.90;;;;;;6242127;23;20438;-80
2023/10/11 01:41:29;;;;;;;11.38;5.50;;;13.10;99.90;;;;;;6243175;23;20063;-80
2023/10/11 01:43:57;;;;;;;12.30;6.47;;;13.10;99.90;;;;;;6216063;23;20012;-82
2023/10/11 01:46:26;;;;;;;14.07;6.35;;;13.00;99.90;;;;;;6215179;23;20031;-81
2023/10/11 01:48:54;;;;;;;13.43;5.90;;;13.10;99.90;;;;;;6245592;23;20008;-80
2023/10/11 01:51:26;;;;;;;13.07;6.68;;;12.90;99.90;;;;;;6243827;23;20031;-80
2023/10/11 01:53:54;;;;;;;14.63;6.10;;;13.00;99.90;;;;;;6246544;23;20015;-81
2023/10/11 01:56:23;;;;;;;10.25;5.78;;;13.00;99.90;;;;;;6246379;23;20034;-82
2023/10/11 01:58:50;;;;;;;13.98;5.80;;;13.00;99.90;;;;;;6244579;23;20021;-81
2023/10/11 02:01:21;;;;;;;13.90;5.63;;;13.00;99.90;;;;;;6248196;23;20004;-81
2023/10/11 02:03:54;;;;;;;12.57;5.80;;;13.00;99.90;;;;;;6248866;22;20008;-81
2023/10/11 02:06:22;;;;;;;11.13;5.90;;;12.90;99.90;;;;;;6246339;23;20035;-81
2023/10/11 02:08:48;;;;;;;11.05;5.80;;;12.90;99.90;;;;;;6249398;23;20226;-82
2023/10/11 02:11:16;;;;;;;13.50;5.70;;;12.90;99.90;;;;;;6246613;23;20000;-80
2023/10/11 02:13:50;;;;;;;13.95;5.32;;;12.90;99.90;;;;;;6244804;23;20036;-81
2023/10/11 02:16:16;;;;;;;13.75;5.68;;;12.90;99.90;;;;;;6245282;23;20000;-81
2023/10/11 02:18:43;;;;;;;14.80;5.97;;;12.80;99.90;;;;;;6245779;23;20008;-83
2023/10/11 02:21:10;;;;;;;14.98;5.85;;;12.80;99.90;;;;;;6247911;23;20004;-81
2023/10/11 02:23:39;;;;;;;14.70;6.32;;;12.90;99.90;;;;;;6264827;22;20134;-81
2023/10/11 02:26:13;;;;;;;12.32;6.25;;;12.80;99.90;;;;;;6268034;22;19996;-80
2023/10/11 02:28:41;;;;;;;11.20;5.78;;;12.80;99.90;;;;;;6228627;23;20015;-82
2023/10/11 02:31:08;;;;;;;12.07;5.70;;;12.80;99.90;;;;;;6224791;23;20000;-82
2023/10/11 02:33:35;;;;;;;12.20;5.70;;;12.70;99.90;;;;;;6248734;23;20000;-81
2023/10/11 02:36:09;;;;;;;12.50;6.40;;;12.80;99.90;;;;;;6245412;23;20023;-81
2023/10/11 02:38:47;;;;;;;12.52;6.50;;;12.70;99.90;;;;;;6248006;23;20160;-82
2023/10/11 02:41:17;;;;;;;16.30;7.05;;;12.70;99.90;;;;;;6217812;23;20019;-81
2023/10/11 02:43:50;;;;;;;13.52;6.20;;;12.70;99.90;;;;;;6220597;23;20076;-81
2023/10/11 02:46:23;;;;;;;16.42;5.95;;;12.70;99.90;;;;;;6221937;23;20004;-81
2023/10/11 02:49:06;;;;;;;12.95;6.07;;;12.70;99.90;;;;;;6218768;23;20449;-81
2023/10/11 02:51:34;;;;;;;14.05;5.65;;;12.70;99.90;;;;;;6220692;23;20000;-82
2023/10/11 02:54:05;;;;;;;14.48;6.22;;;12.70;99.90;;;;;;6245883;23;20011;-83
2023/10/11 02:56:46;;;;;;;13.60;5.47;;;12.60;99.90;;;;;;6220504;23;20042;-81
2023/10/11 02:59:19;;;;;;;11.85;5.32;;;12.60;99.90;;;;;;6220398;23;20008;-82
2023/10/11 03:01:59;;;;;;;11.23;5.80;;;12.60;99.90;;;;;;6245569;23;20487;-81
2023/10/11 03:04:38;;;;;;;11.27;6.10;;;12.50;99.90;;;;;;6219588;23;20004;-82
2023/10/11 03:07:09;;;;;;;10.57;4.85;;;12.50;99.90;;;;;;6222889;23;20012;-80
2023/10/11 03:09:38;;;;;;;12.00;5.85;;;12.50;99.90;;;;;;6199027;23;20067;-81
2023/10/11 03:12:30;;;;;;;10.90;5.53;;;12.50;99.90;;;;;;6221999;23;20057;-82
2023/10/11 03:15:04;;;;;;;12.93;6.40;;;12.50;99.90;;;;;;6247688;23;20000;-82
2023/10/11 03:17:32;;;;;;;10.27;6.07;;;12.50;99.90;;;;;;6224529;23;20008;-81
2023/10/11 03:19:59;;;;;;;15.35;5.97;;;12.50;99.90;;;;;;6249600;23;20011;-81
2023/10/11 03:22:28;;;;;;;12.45;6.47;;;12.50;99.90;;;;;;6222821;23;20303;-81
2023/10/11 03:25:00;;;;;;;15.00;5.68;;;12.50;99.90;;;;;;6226688;23;20046;-81
2023/10/11 03:27:36;;;;;;;12.68;6.03;;;12.50;99.90;;;;;;6259785;23;20010;-81
2023/10/11 03:30:03;;;;;;;12.27;6.13;;;12.50;99.90;;;;;;6266116;23;20031;-82
2023/10/11 03:32:30;;;;;;;15.70;6.10;;;12.50;99.90;;;;;;6266764;23;20067;-80
2023/10/11 03:34:56;;;;;;;10.98;6.07;;;12.50;99.90;;;;;;6260873;23;19988;-82
2023/10/11 03:37:27;;;;;;;13.43;6.22;;;12.50;99.90;;;;;;6264696;23;20313;-80
2023/10/11 03:39:57;;;;;;;12.55;5.43;;;12.50;99.90;;;;;;6269241;23;20051;-82
2023/10/11 03:45:27;;;;;;;12.55;5.25;;;12.50;99.90;;;;;;6187989;23;19900;-81
2023/10/11 03:47:57;;;;;;;11.27;5.22;;;12.50;99.90;;;;;;6239035;22;20004;-81
2023/10/11 03:50:34;;;;;;;12.07;5.70;;;12.50;99.90;;;;;;6247198;23;20007;-81
2023/10/11 03:53:11;;;;;;;12.35;6.03;;;12.50;99.90;;;;;;6248563;23;20095;-81
2023/10/11 03:55:56;;;;;;;12.07;5.45;;;12.50;99.90;;;;;;6248174;23;20426;-81
2023/10/11 03:58:44;;;;;;;8.70;4.93;;;12.50;99.90;;;;;;6248359;23;20008;-80
2023/10/11 04:03:38;;;;;;;10.95;5.80;;;12.50;99.90;;;;;;6246939;22;20091;-80
2023/10/11 04:06:13;;;;;;;13.93;6.68;;;12.50;99.90;;;;;;6248351;23;20336;-80
2023/10/11 04:08:47;;;;;;;12.02;5.63;;;12.50;99.90;;;;;;6248556;23;20008;-80
2023/10/11 04:11:18;;;;;;;9.93;5.50;;;12.40;99.90;;;;;;6246565;23;20004;-79
2023/10/11 04:13:47;;;;;;;12.13;5.60;;;12.40;99.90;;;;;;6223044;23;20435;-80
2023/10/11 04:16:17;;;;;;;12.50;5.88;;;12.40;99.90;;;;;;6249257;23;20011;-80
2023/10/11 04:18:44;;;;;;;13.38;5.93;;;12.40;99.90;;;;;;6251162;23;20001;-80
2023/10/11 04:23:39;;;;;;;13.65;6.15;;;12.40;99.90;;;;;;6257107;22;20008;-80
2023/10/11 04:26:16;;;;;;;16.38;6.18;;;12.40;99.90;;;;;;6256681;23;20072;-81
2023/10/11 04:28:43;;;;;;;15.95;5.80;;;12.40;99.90;;;;;;6256210;23;20004;-81
2023/10/11 04:31:30;;;;;;;14.68;6.28;;;12.40;99.90;;;;;;6258515;23;20091;-81
2023/10/11 04:33:59;;;;;;;14.88;6.28;;;12.30;99.90;;;;;;6260881;23;20004;-80
2023/10/11 04:36:28;;;;;;;12.48;5.72;;;12.40;99.90;;;;;;6260865;23;20030;-81
2023/10/11 04:39:13;;;;;;;13.75;6.43;;;12.40;99.90;;;;;;6252809;23;20015;-80
2023/10/11 04:41:49;;;;;;;13.45;6.15;;;12.40;99.90;;;;;;6250823;22;20103;-80
2023/10/11 04:44:17;;;;;;;17.05;6.63;;;12.30;99.90;;;;;;6248300;23;20012;-80
2023/10/11 04:46:57;;;;;;;13.90;6.50;;;12.30;99.90;;;;;;6246346;23;20733;-80
2023/10/11 04:49:25;;;;;;;14.13;6.00;;;12.30;99.90;;;;;;6246271;22;20568;-80
2023/10/11 04:51:56;;;;;;;15.23;6.63;;;12.30;99.90;;;;;;6243616;23;20011;-79
2023/10/11 04:54:36;;;;;;;16.52;6.28;;;12.30;99.90;;;;;;6245565;22;20006;-79
2023/10/11 04:57:16;;;;;;;13.98;6.05;;;12.30;99.90;;;;;;6243576;22;20019;-79
2023/10/11 04:59:46;;;;;;;11.77;6.30;;;12.30;99.90;;;;;;6238287;23;20342;-79
2023/10/11 05:02:32;;;;;;;13.13;6.90;;;12.20;99.90;;;;;;6248724;23;20000;-79
2023/10/11 05:04:59;;;;;;;14.70;6.15;;;12.30;99.90;;;;;;6240538;23;20266;-79
2023/10/11 05:07:28;;;;;;;12.98;6.43;;;12.30;99.90;;;;;;6243035;23;20019;-79
2023/10/11 05:10:14;;;;;;;18.30;6.47;;;12.40;99.90;;;;;;6244528;23;20339;-79
2023/10/11 05:12:41;;;;;;;15.50;5.93;;;12.30;99.90;;;;;;6242752;23;20087;-79
2023/10/11 05:15:08;;;;;;;12.25;6.07;;;12.30;99.90;;;;;;6247519;23;20008;-79
2023/10/11 05:17:39;;;;;;;13.10;6.00;;;12.30;99.90;;;;;;6248140;23;20020;-79
2023/10/11 05:28:26;;;;;;;15.05;6.97;;;12.30;99.90;;;;;;6260635;23;20078;-79
2023/10/11 05:34:29;;;;;;;13.52;6.65;;;12.20;99.90;;;;;;6221607;23;20012;-79
2023/10/11 05:50:50;;;;;;;13.32;6.07;;;12.30;99.90;;;;;;6227383;23;20075;-79
2023/10/11 05:50:50;;;;;;;13.75;6.43;;;12.30;99.90;;;;;;6228085;23;20470;-79
2023/10/11 05:53:18;;;;;;;16.75;7.07;;;12.30;99.90;;;;;;6223046;23;20339;-78
2023/10/11 05:55:43;;;;;;;11.93;6.32;;;12.30;99.90;;;;;;6220553;23;20066;-79
2023/10/11 05:58:13;;;;;;;16.48;7.53;;;12.30;99.90;;;;;;6221967;23;20008;-78
2023/10/11 06:00:39;;;;;;;15.43;5.97;;;12.30;99.90;;;;;;6252010;23;20065;-78
2023/10/11 06:03:06;;;;;;;12.15;5.88;;;12.30;99.90;;;;;;6222977;23;20011;-77
2023/10/11 06:05:39;;;;;;;14.25;6.90;;;12.30;99.90;;;;;;6222543;23;20008;-78
2023/10/11 06:08:15;;;;;;;15.65;6.20;;;12.30;99.90;;;;;;6222288;23;20508;-78
2023/10/11 06:10:42;;;;;;;14.23;6.57;;;12.40;99.90;;;;;;6221365;23;20434;-78
2023/10/11 06:13:13;;;;;;;18.13;6.97;;;12.40;99.90;;;;;;6222406;23;20087;-78
2023/10/11 06:15:43;;;;;;;15.20;6.80;;;12.40;99.90;;;;;;6219949;23;20004;-78
2023/10/11 06:18:35;;;;;;;;;;;12.40;99.90;;;;;;6220535;23;20012;-79
2023/10/11 06:21:18;;;;;;;16.70;6.35;;;12.50;99.90;;;;;;6249025;23;19911;-79
2023/10/11 06:23:45;;;;;;;20.67;6.57;;;12.50;99.90;;;;;;6250461;23;20004;-79
2023/10/11 06:29:03;;;;;;;15.75;6.45;;;12.60;99.90;;;;;;6251420;23;20030;-79
2023/10/11 06:31:43;;;;;;;14.73;6.47;;;12.60;99.90;;;;;;6249393;23;20001;-80
2023/10/11 06:34:17;;;;;;;13.52;6.78;;;12.60;99.90;;;;;;6246373;23;20374;-78
2023/10/11 06:36:56;;;;;;;13.57;6.20;;;12.70;99.90;;;;;;6247203;23;20003;-79
2023/10/11 06:39:34;;;;;;;12.35;6.07;;;12.70;99.90;;;;;;6247181;23;20004;-80
2023/10/11 06:42:12;;;;;;;16.15;5.88;;;12.70;99.90;;;;;;6250656;23;20426;-79
2023/10/11 06:44:39;;;;;;;15.77;7.40;;;12.70;99.90;;;;;;6251611;22;20019;-79
2023/10/11 06:47:05;;;;;;;15.05;6.30;;;12.80;99.90;;;;;;6247521;23;20004;-80
2023/10/11 06:49:40;;;;;;;16.92;6.18;;;12.80;99.90;;;;;;6248454;23;20055;-79
2023/10/11 06:52:11;;;;;;;12.10;5.90;;;12.80;99.90;;;;;;6260871;22;20004;-79
2023/10/11 06:54:45;;;;;;;15.25;6.05;;;12.80;99.90;;;;;;6259473;23;20000;-80
2023/10/11 06:57:17;;;;;;;14.00;5.70;;;12.90;99.90;;;;;;6259356;23;20011;-80
2023/10/11 06:59:43;;;;;;;15.02;6.75;;;12.90;99.90;;;;;;6256528;23;20004;-80
2023/10/11 07:02:17;;;;;;;17.15;6.38;;;13.00;99.90;;;;;;6261944;22;20004;-80
2023/10/11 07:04:50;;;;;;;14.73;5.78;;;13.00;99.90;;;;;;6267433;22;20051;-80
2023/10/11 07:07:18;;;;;;;11.52;5.53;;;13.10;99.90;;;;;;6267420;22;20000;-79
2023/10/11 07:09:56;;;;;;;14.65;5.85;;;13.20;99.90;;;;;;6268923;22;20015;-79
2023/10/11 07:12:28;;;;;;;13.02;5.70;;;13.20;99.90;;;;;;6270904;22;19988;-78
2023/10/11 07:14:58;;;;;;;13.40;6.60;;;13.30;99.90;;;;;;6271260;22;19996;-79
2023/10/11 07:17:32;;;;;;;14.68;6.25;;;13.40;99.90;;;;;;6263331;23;20430;-79
2023/10/11 07:19:58;;;;;;;16.00;6.13;;;13.50;99.90;;;;;;6249447;23;20004;-80
2023/10/11 07:22:27;;;;;;;12.55;5.65;;;13.50;99.90;;;;;;6250819;23;20028;-78
2023/10/11 07:24:56;;;;;;;15.27;6.15;;;13.60;99.90;;;;;;6249440;23;20012;-79
2023/10/11 07:27:37;;;;;;;11.60;6.18;;;13.70;99.90;;;;;;6248052;23;20015;-79
2023/10/11 07:30:06;;;;;;;14.18;5.85;;;13.70;99.90;;;;;;6254007;22;20019;-79
2023/10/11 07:32:36;;;;;;;15.00;5.55;;;13.80;99.90;;;;;;6252292;23;19996;-79
2023/10/11 07:35:09;;;;;;;12.57;5.43;;;13.90;99.90;;;;;;6251073;23;20481;-79
2023/10/11 07:37:39;;;;;;;14.07;5.72;;;13.90;99.90;;;;;;6250233;23;20545;-80
2023/10/11 07:40:09;;;;;;;11.48;5.00;;;14.00;99.90;;;;;;6251877;22;20075;-79
2023/10/11 07:42:38;;;;;;;11.30;5.88;;;14.10;99.90;;;;;;6251440;23;20012;-80
2023/10/11 07:45:12;;;;;;;10.23;5.47;;;14.20;99.90;;;;;;6253692;22;20007;-80
2023/10/11 07:47:45;;;;;;;11.30;5.50;;;14.30;99.90;;;;;;6255025;22;20012;-81
2023/10/11 07:50:14;;;;;;;12.77;5.55;;;14.40;99.90;;;;;;6252076;23;20053;-79
2023/10/11 07:52:47;;;;;;;12.02;5.55;;;14.50;99.90;;;;;;6251508;22;20008;-81
2023/10/11 07:55:17;;;;;;;11.73;5.25;;;14.60;99.90;;;;;;6250180;23;20035;-81
2023/10/11 07:57:44;;;;;;;14.47;6.20;;;14.70;99.90;;;;;;6248755;23;20066;-82
2023/10/11 08:00:20;;;;;;;12.20;5.50;;;14.80;99.90;;;;;;6251084;23;20012;-81
2023/10/11 08:03:05;;;;;;;13.68;5.68;;;14.80;99.90;;;;;;6252838;22;20050;-82
2023/10/11 08:05:44;;;;;;;12.13;5.50;;;14.90;99.90;;;;;;6250698;23;20009;-81
2023/10/11 08:08:13;;;;;;;12.05;5.43;;;15.00;99.90;;;;;;6252607;23;20454;-81
2023/10/11 08:10:44;;;;;;;12.50;5.80;;;15.10;99.90;;;;;;6250094;23;20007;-81
2023/10/11 08:13:26;;;;;;;16.38;5.53;;;15.20;99.90;;;;;;6254644;22;20078;-83
2023/10/11 08:15:59;;;;;;;13.45;5.28;;;15.40;99.90;;;;;;6253762;23;20066;-82
2023/10/11 08:18:28;;;;;;;13.95;5.75;;;15.50;99.90;;;;;;6255141;23;20067;-82
2023/10/11 08:20:54;;;;;;;13.20;5.18;;;15.60;99.90;;;;;;6254335;23;20005;-82
2023/10/11 08:23:29;;;;;;;16.05;6.10;;;15.70;99.90;;;;;;6257258;23;20034;-82
2023/10/11 08:25:56;;;;;;;14.68;5.75;;;15.80;99.90;;;;;;6253985;23;20415;-81
2023/10/11 08:28:28;;;;;;;13.65;5.40;;;15.90;99.90;;;;;;6256662;23;20075;-81
2023/10/11 08:30:57;;;;;;;12.55;5.20;;;16.00;99.90;;;;;;6265224;22;19992;-81
2023/10/11 08:33:25;;;;;;;14.38;5.82;;;16.00;99.90;;;;;;6270755;22;20080;-82
2023/10/11 08:35:53;;;;;;;12.13;5.90;;;16.10;99.90;;;;;;6266306;22;20027;-86
2023/10/11 08:38:24;;;;;;;15.85;5.75;;;16.20;99.90;;;;;;6261277;22;19984;-80
2023/10/11 08:40:58;;;;;;;12.55;5.25;;;16.30;99.90;;;;;;6261479;22;20035;-82
2023/10/11 08:43:28;;;;;;;14.00;5.15;;;16.40;99.90;;;;;;6259769;22;19993;-80
2023/10/11 08:46:13;;;;;;;9.60;4.97;;;16.40;99.90;;;;;;6250438;22;20497;-84
2023/10/11 08:48:39;;;;;;;11.27;5.10;;;16.50;99.90;;;;;;6248676;23;20004;-80
2023/10/11 08:51:10;;;;;;;10.18;4.65;;;16.60;99.90;;;;;;6246473;23;20034;-81
2023/10/11 08:53:47;;;;;;;11.00;4.85;;;16.60;99.90;;;;;;6250176;22;20423;-82
2023/10/11 08:56:17;;;;;;;13.40;5.20;;;16.80;99.90;;;;;;6247742;23;20004;-81
2023/10/11 08:58:47;;;;;;;18.00;6.23;;;16.90;99.90;;;;;;6247551;23;20004;-81
2023/10/11 09:01:14;;;;;;;11.20;5.13;;;17.10;99.90;;;;;;6250018;23;20008;-82
2023/10/11 09:03:40;;;;;;;13.40;5.45;;;17.10;99.90;;;;;;6248497;23;20008;-81
2023/10/11 09:06:20;;;;;;;21.40;5.13;;;17.10;99.90;;;;;;6250321;23;20015;-82
2023/10/11 09:08:47;;;;;;;14.27;4.90;;;17.20;99.90;;;;;;6251062;22;20506;-82
2023/10/11 09:11:31;;;;;;;12.05;5.35;;;17.30;99.90;;;;;;6248007;23;20298;-81
2023/10/11 09:14:12;;;;;;;12.50;5.10;;;17.40;99.90;;;;;;6250248;23;20004;-82
2023/10/11 09:16:40;;;;;;;16.35;5.45;;;17.60;99.90;;;;;;6251631;23;20000;-83
2023/10/11 09:19:09;;;;;;;12.13;4.65;;;17.90;99.90;;;;;;6225858;23;20008;-82
2023/10/11 09:21:35;;;;;;;13.30;4.55;;;17.80;99.90;;;;;;6252703;23;20011;-82
2023/10/11 09:24:25;;;;;;;12.02;5.00;;;17.90;99.90;;;;;;6248358;23;20012;-83
2023/10/11 09:29:42;;;;;;;13.85;5.10;;;18.20;99.90;;;;;;6260405;22;20051;-81
2023/10/11 09:32:09;;;;;;;12.93;5.57;;;18.30;99.90;;;;;;6249705;23;20023;-81
2023/10/11 09:34:41;;;;;;;18.08;5.32;;;18.30;99.90;;;;;;6246610;23;20000;-81
2023/10/11 09:37:11;;;;;;;11.77;4.95;;;18.50;99.90;;;;;;6246584;22;20443;-81
2023/10/11 09:39:43;;;;;;;17.88;5.20;;;18.60;99.90;;;;;;6245390;23;20022;-78
2023/10/11 09:42:14;;;;;;;10.43;4.38;;;18.70;99.90;;;;;;6244514;23;20038;-79
2023/10/11 09:44:44;;;;;;;13.18;4.50;;;18.90;99.90;;;;;;6244108;23;20349;-79
2023/10/11 09:47:16;;;;;;;10.02;4.25;;;19.40;99.90;;;;;;6241719;23;20012;-79
2023/10/11 09:49:43;;;;;;;11.70;4.65;;;19.80;99.90;;;;;;6243623;23;20057;-81
2023/10/11 09:52:17;;;;;;;11.85;4.78;;;20.10;99.90;;;;;;6241392;23;20458;-81
2023/10/11 09:55:08;;;;;;;13.60;4.80;;;20.40;99.90;;;;;;6242260;23;20533;-80
2023/10/11 09:57:54;;;;;;;13.00;4.25;;;20.90;99.90;;;;;;6244373;23;20012;-81
2023/10/11 10:00:58;;;;;;;15.80;4.93;;;21.00;99.90;;;;;;6244605;23;20015;-80
2023/10/11 10:03:24;;;;;;;24.90;5.20;;;21.00;99.90;;;;;;6244036;23;20019;-79
2023/10/11 10:06:18;;;;;;;17.98;5.28;;;20.70;99.90;;;;;;6245312;23;20070;-79
2023/10/11 10:09:03;;;;;;;10.25;4.45;;;20.70;99.90;;;;;;6243177;23;20008;-80
2023/10/11 10:12:42;;;;;;;12.60;4.65;;;20.70;99.90;;;;;;6247189;23;20000;-80
2023/10/11 10:15:01;;;;;;;13.07;4.88;;;20.70;99.90;;;;;;6234831;22;20000;-81
2023/10/11 10:17:28;;;;;;;11.52;4.40;;;20.70;99.90;;;;;;6246321;22;20030;-80
2023/10/11 10:20:00;;;;;;;15.23;4.57;;;20.70;99.90;;;;;;6244703;23;20090;-79
2023/10/11 10:22:31;;;;;;;11.63;4.80;;;20.70;99.90;;;;;;6239962;23;20024;-78
2023/10/11 10:25:20;;;;;;;16.17;4.82;;;20.70;99.90;;;;;;6247720;22;20195;-80
2023/10/11 10:27:46;;;;;;;11.82;4.60;;;20.80;99.90;;;;;;6192523;23;20012;-79
2023/10/11 10:30:27;;;;;;;10.68;4.63;;;20.90;99.90;;;;;;6219086;23;20027;-79
2023/10/11 10:33:22;;;;;;;13.55;5.03;;;21.20;99.90;;;;;;6217623;23;20000;-79
2023/10/11 10:35:48;;;;;;;11.20;4.18;;;21.70;99.90;;;;;;6239915;23;20035;-79
2023/10/11 10:38:14;;;;;;;12.43;4.57;;;22.00;99.90;;;;;;6218534;23;20008;-80
2023/10/11 10:40:45;;;;;;;14.63;5.22;;;22.30;99.90;;;;;;6244069;23;20009;-80
2023/10/11 10:43:19;;;;;;;10.98;4.65;;;22.50;99.90;;;;;;6215493;23;20004;-79
2023/10/11 10:45:50;;;;;;;13.15;4.53;;;22.80;99.90;;;;;;6247162;23;20095;-77
2023/10/11 10:48:23;;;;;;;9.98;4.38;;;22.80;99.90;;;;;;6251056;23;20024;-76
2023/10/11 10:51:05;;;;;;;18.48;4.47;;;22.80;99.90;;;;;;6258095;23;20004;-77
2023/10/11 10:53:53;;;;;;;11.60;4.25;;;22.90;99.90;;;;;;6230799;23;20385;-76
2023/10/11 10:56:25;;;;;;;12.05;4.35;;;23.10;99.90;;;;;;6228614;23;20439;-77
2023/10/11 10:59:04;;;;;;;15.40;4.55;;;23.20;99.90;;;;;;6254556;23;19996;-78
2023/10/11 11:01:33;;;;;;;11.33;4.80;;;23.30;99.90;;;;;;6256674;23;20110;-78
2023/10/11 11:04:06;;;;;;;12.40;4.65;;;23.30;99.90;;;;;;6225319;23;20011;-78
2023/10/11 11:06:46;;;;;;;17.20;4.22;;;23.50;99.90;;;;;;6248277;23;20079;-78
2023/10/11 11:09:14;;;;;;;;;;;23.50;99.90;;;;;;6223739;23;20070;-77
2023/10/11 11:11:44;;;;;;;10.48;4.30;;;23.30;99.90;;;;;;6222886;23;19903;-75
2023/10/11 11:14:14;;;;;;;16.00;4.55;;;23.10;99.90;;;;;;6223362;23;20004;-78
2023/10/11 11:16:43;;;;;;;14.27;5.30;;;23.10;99.90;;;;;;6223968;23;20011;-77
2023/10/11 11:19:25;;;;;;;23.90;5.35;;;23.00;99.90;;;;;;6222762;23;20014;-78
2023/10/11 11:22:11;;;;;;;15.35;4.97;;;22.90;99.90;;;;;;6223754;23;20012;-77
2023/10/11 11:24:38;;;;;;;12.98;4.22;;;22.80;99.90;;;;;;6250514;23;20004;-78
2023/10/11 11:27:25;;;;;;;14.82;4.45;;;22.70;99.90;;;;;;6250468;23;20079;-79
2023/10/11 11:30:02;;;;;;;14.60;4.28;;;22.70;99.90;;;;;;6222555;23;20011;-78
2023/10/11 11:32:38;;;;;;;13.70;4.53;;;22.70;99.90;;;;;;6221762;23;19996;-78
2023/10/11 11:35:15;;;;;;;14.48;4.88;;;22.60;99.90;;;;;;6223328;23;20004;-77
2023/10/11 11:38:06;;;;;;;15.10;4.38;;;22.60;99.90;;;;;;6231225;23;20004;-78
2023/10/11 11:40:47;;;;;;;13.93;4.32;;;22.60;99.90;;;;;;6257879;23;19997;-76
2023/10/11 11:43:20;;;;;;;13.65;4.30;;;22.60;99.90;;;;;;6222555;23;20008;-76
2023/10/11 11:45:47;;;;;;;12.65;4.28;;;22.70;99.90;;;;;;6223345;23;20008;-76
2023/10/11 11:48:23;;;;;;;14.10;4.10;;;22.80;99.90;;;;;;6252677;23;20075;-79
2023/10/11 11:50:49;;;;;;;14.63;4.55;;;22.80;99.90;;;;;;6225574;23;20023;-79
2023/10/11 11:53:18;;;;;;;16.25;4.65;;;22.80;99.90;;;;;;6223758;23;20007;-77
2023/10/11 11:55:44;;;;;;;12.15;4.10;;;22.80;99.90;;;;;;6220624;23;20008;-76
2023/10/11 11:58:10;;;;;;;12.63;4.75;;;22.90;99.90;;;;;;6248692;23;20414;-77
2023/10/11 12:00:39;;;;;;;12.70;4.68;;;23.00;99.90;;;;;;6250022;23;20004;-76
2023/10/11 12:03:06;;;;;;;15.98;4.25;;;23.00;99.90;;;;;;6222865;23;20004;-76
2023/10/11 12:05:42;;;;;;;16.73;4.70;;;22.90;99.90;;;;;;6222367;23;20008;-76
2023/10/11 12:08:18;;;;;;;13.98;4.05;;;23.00;99.90;;;;;;6222532;23;20032;-76
2023/10/11 12:10:47;;;;;;;14.52;4.25;;;22.90;99.90;;;;;;6250055;23;20052;-76
2023/10/11 12:13:22;;;;;;;16.80;4.40;;;22.90;99.90;;;;;;6249244;23;20004;-76
2023/10/11 12:15:54;;;;;;;10.88;3.90;;;23.00;99.90;;;;;;6249894;23;20026;-76
2023/10/11 12:18:32;;;;;;;16.55;4.75;;;23.10;99.90;;;;;;6222962;23;20004;-76
2023/10/11 12:20:59;;;;;;;13.55;3.97;;;23.00;99.90;;;;;;6223116;23;20015;-76
2023/10/11 12:23:25;;;;;;;10.15;3.50;;;23.10;99.90;;;;;;6201126;23;20039;-79
2023/10/11 12:25:50;;;;;;;15.45;4.00;;;23.10;99.90;;;;;;6184544;23;20029;-78
2023/10/11 12:28:18;;;;;;;14.85;4.00;;;23.10;99.90;;;;;;6187381;23;20023;-77
2023/10/11 12:30:45;;;;;;;14.27;4.15;;;23.20;99.90;;;;;;6183790;23;20352;-78
2023/10/11 12:33:11;;;;;;;18.10;4.95;;;23.20;99.90;;;;;;6182639;23;20228;-77
2023/10/11 12:35:41;;;;;;;11.45;4.25;;;23.30;99.90;;;;;;6182042;23;20012;-80
2023/10/11 12:38:12;;;;;;;18.20;4.10;;;23.30;99.90;;;;;;6184016;23;20015;-77
2023/10/11 12:40:44;;;;;;;14.82;4.30;;;23.40;99.90;;;;;;6178623;23;20013;-77
2023/10/11 12:43:10;;;;;;;15.80;5.10;;;23.60;99.90;;;;;;6181345;23;20127;-77
2023/10/11 12:45:44;;;;;;;9.50;4.32;;;23.70;99.90;;;;;;6183633;23;20005;-78
2023/10/11 12:48:10;;;;;;;12.30;4.50;;;23.70;99.90;;;;;;6186397;23;20057;-77
2023/10/11 12:50:37;;;;;;;15.13;4.60;;;23.60;99.90;;;;;;6185052;23;20001;-77
2023/10/11 12:53:11;;;;;;;16.30;4.95;;;23.60;99.90;;;;;;6183597;23;20033;-78
2023/10/11 12:55:45;;;;;;;18.08;3.83;;;23.50;99.90;;;;;;6183509;23;20019;-78
2023/10/11 12:58:15;;;;;;;11.13;3.55;;;23.60;99.90;;;;;;6182579;23;20001;-77
2023/10/11 13:00:53;;;;;;;12.82;4.03;;;23.60;99.90;;;;;;6183162;23;20005;-78
2023/10/11 13:03:29;;;;;;;10.60;3.67;;;23.80;99.90;;;;;;6185483;23;20005;-77
2023/10/11 13:05:56;;;;;;;13.10;4.45;;;24.00;99.60;;;;;;6182271;23;20009;-78
2023/10/11 13:08:28;;;;;;;16.25;4.03;;;24.10;99.90;;;;;;6183657;23;20005;-78
2023/10/11 13:10:54;;;;;;;14.88;4.07;;;24.00;99.90;;;;;;6184217;23;20005;-78
2023/10/11 13:13:21;;;;;;;12.60;4.00;;;23.90;99.90;;;;;;6183230;23;20059;-78
2023/10/11 13:16:26;;;;;;;17.88;3.88;;;23.90;99.90;;;;;;6184361;23;20339;-78
2023/10/11 13:18:41;;;;;;;16.20;4.00;;;23.80;99.90;;;;;;6184880;23;20005;-78
2023/10/11 13:21:11;;;;;;;17.00;4.00;;;23.80;99.90;;;;;;6186047;23;20069;-78
2023/10/11 13:23:39;;;;;;;;;;;23.80;99.90;;;;;;6182016;23;20025;-78
2023/10/11 13:26:09;;;;;;;11.27;4.30;;;23.70;99.90;;;;;;6185036;23;19936;-78
2023/10/11 13:28:36;;;;;;;12.70;3.75;;;23.80;99.90;;;;;;6184031;23;20008;-77
2023/10/11 13:31:04;;;;;;;16.20;3.90;;;23.80;99.90;;;;;;6186121;23;20012;-78
2023/10/11 13:33:32;;;;;;;12.60;3.97;;;23.80;99.90;;;;;;6183939;23;20008;-77
2023/10/11 13:35:59;;;;;;;11.70;3.50;;;23.80;99.80;;;;;;6183764;23;20020;-78
2023/10/11 13:38:25;;;;;;;15.15;4.25;;;23.80;99.90;;;;;;6185024;23;20099;-77
2023/10/11 13:40:52;;;;;;;10.13;3.85;;;23.80;99.90;;;;;;6186031;23;20012;-78
2023/10/11 13:43:22;;;;;;;18.02;4.10;;;23.90;99.90;;;;;;6190803;23;20012;-78
2023/10/11 13:45:56;;;;;;;13.93;4.03;;;23.80;99.90;;;;;;6187504;23;20008;-79
2023/10/11 13:48:28;;;;;;;10.00;3.97;;;23.80;99.90;;;;;;6187571;23;20001;-78
2023/10/11 13:50:54;;;;;;;11.48;4.00;;;24.00;99.90;;;;;;6185219;23;20029;-78
2023/10/11 13:53:23;;;;;;;13.38;4.15;;;24.10;99.40;;;;;;6185814;23;19997;-79
2023/10/11 13:55:55;;;;;;;12.73;4.30;;;24.10;99.40;;;;;;6188145;23;20001;-78
2023/10/11 13:58:21;;;;;;;13.32;4.00;;;24.20;99.00;;;;;;6183548;23;20004;-78
2023/10/11 14:05:45;;;;;;;14.25;3.78;;;24.10;99.50;;;;;;6183209;23;20012;-78
2023/10/11 14:08:24;;;;;;;13.63;4.32;;;24.00;99.60;;;;;;6183678;23;20068;-78
2023/10/11 14:10:54;;;;;;;10.70;3.50;;;23.90;99.90;;;;;;6183055;23;20359;-79